• Join FlightAware (Why Join?)
  • Login
  • US Flag 
08:01AM EDT


 

Airport Tracker/Info


-or-


 

Live Flight TrackerFlight Track Log ✈ AM214 ✈ 02-May-2013 ✈ YARM - YPMQ / PQQ

Flight Track Log - Related Links

Times and Time Zones

All times are in EDT time to prevent confusion due to time zone crossing. See the AM214 flight status page for this flight to view local times or setup timezone preferences in your user account.

Time Position Orientation Groundspeed Altitude Reporting Facility
EDT Latitude Longitude Course Direction KTS MPH feet Rate Location/Type
01:37AM -30.5156 151.6417 321° Northwest 151 174 4,500  Level Aus ATC (RADAR)
01:38AM -30.4904 151.6181 321° Northwest 163 188 6,200 1,860 Climbing Aus ATC (RADAR)
01:38AM -30.4993 151.6057 230° Southwest 177 204 6,700 1,920 Climbing Aus ATC (RADAR)
01:39AM -30.5307 151.6096 174° South 194 223 7,800 1,920 Climbing Aus ATC (RADAR)
01:41AM -30.6565 151.6280 173° South 191 220 12,600 1,980 Climbing Aus ATC (RADAR)
01:42AM -30.6900 151.6320 174° South 184 212 14,000 1,920 Climbing Aus ATC (RADAR)
01:42AM -30.7027 151.6331 176° South 184 212 14,400 1,440 Climbing Aus ATC (RADAR)
01:43AM -30.7287 151.6351 176° South 187 215 15,100 1,800 Climbing Aus ATC (RADAR)
01:44AM -30.7811 151.6401 175° South 188 216 17,100 1,380 Climbing Aus ATC (RADAR)
01:44AM -30.8134 151.6426 176° South 200 230 17,300 120 Climbing Aus ATC (RADAR)
01:45AM -30.8790 151.6489 175° South 235 270 17,300  Level Aus ATC (RADAR)
01:47AM -30.9750 151.6572 176° South 245 282 17,300  Level Aus ATC (RADAR)
01:47AM -30.9920 151.6588 175° South 245 282 17,300  Level Aus ATC (RADAR)
01:47AM -31.0150 151.6611 175° South 246 283 17,300  Level Aus ATC (RADAR)
01:51AM -31.2733 151.6846 176° South 244 281 17,300  Level Aus ATC (RADAR)
01:52AM -31.3587 151.6926 175° South 245 282 17,300  Level Aus ATC (RADAR)
01:54AM -31.4559 151.7018 175° South 247 284 17,300  Level Aus ATC (RADAR)
01:54AM -31.4728 151.7035 175° South 245 282 17,300  Level Aus ATC (RADAR)
01:55AM -31.5681 151.7012 181° South 241 277 17,300  Level Aus ATC (RADAR)
01:57AM -31.6661 151.6797 191° South 238 274 17,300  Level Aus ATC (RADAR)
01:57AM -31.6825 151.6763 190° South 238 274 17,300  Level Aus ATC (RADAR)
01:58AM -31.7315 151.6667 189° South 237 273 17,300  Level Aus ATC (RADAR)
01:58AM -31.7698 151.6584 190° South 239 275 17,300  Level Aus ATC (RADAR)
01:59AM -31.8296 151.6460 190° South 237 273 17,300 -300 Level Aus ATC (RADAR)
02:00AM -31.8420 151.6430 190° South 228 262 17,000  Descending FlightAware
02:00AM -31.8674 151.6381 190° South 236 272 17,300  Climbing Aus ATC (RADAR)
02:00AM -31.8790 151.6350 190° South 228 262 17,000  Descending FlightAware
02:01AM -31.9375 151.6234 190° South 236 272 17,300  Climbing Aus ATC (RADAR)
02:01AM -31.9340 151.6240 190° South 229 264 17,000  Descending FlightAware
02:01AM -31.9537 151.6201 190° South 235 270 17,300  Climbing Aus ATC (RADAR)
02:02AM -31.9940 151.6120 190° South 228 262 17,000 -960 Descending FlightAware
02:03AM -32.0440 151.6230 169° South 245 282 16,000 -1,140 Descending FlightAware
02:03AM -32.0774 151.6317 169° South 252 290 15,700 -1,380 Descending Aus ATC (RADAR)
02:03AM -32.0900 151.6350 169° South 250 288 15,100 -1,380 Descending FlightAware
02:04AM -32.1181 151.6428 169° South 252 290 14,900 -1,500 Descending Aus ATC (RADAR)
02:04AM -32.1400 151.6490 169° South 252 290 14,100 -1,440 Descending FlightAware
02:05AM -32.1824 151.6603 169° South 253 291 13,600 -1,380 Descending Aus ATC (RADAR)
02:05AM -32.1920 151.6630 169° South 249 287 13,100 -540 Descending FlightAware
02:05AM -32.2227 151.6713 169° South 249 287 13,300 -300 Climbing Aus ATC (RADAR)
02:05AM -32.2380 151.6750 169° South 250 288 12,900 -1,200 Descending FlightAware
02:06AM -32.2794 151.6860 169° South 248 285 12,300 -1,500 Descending Aus ATC (RADAR)
02:06AM -32.2890 151.6890 169° South 246 283 11,800 -1,680 Descending FlightAware
02:07AM -32.3360 151.7020 167° South 246 283 10,900 -1,140 Descending FlightAware
02:07AM -32.3597 151.7079 167° South 247 284 10,700 -1,380 Descending Aus ATC (RADAR)
02:08AM -32.3820 151.7140 167° South 248 285 10,000 -1,380 Descending FlightAware
02:08AM -32.4119 151.7220 167° South 249 287 9,700 -1,440 Descending Aus ATC (RADAR)
02:08AM -32.4160 151.7230 167° South 248 285 9,300 -1,680 Descending FlightAware
02:09AM -32.4510 151.7330 166° South 249 287 8,700 -1,200 Descending FlightAware
02:09AM -32.4790 151.7400 168° South 248 285 8,200 -1,500 Descending FlightAware
02:09AM -32.4960 151.7440 169° South 244 281 7,700 -1,620 Descending FlightAware
02:09AM -32.5130 151.7390 194° South 253 291 7,400 -960 Descending FlightAware
02:10AM -32.5366 151.7309 194° South 251 289 7,200 -1,680 Descending Aus ATC (RADAR)
02:10AM -32.5400 151.7290 194° South 241 277 6,700 -2,460 Descending FlightAware
02:10AM -32.5570 151.7210 202° Southwest 230 265 6,300 -1,500 Descending FlightAware
02:11AM -32.5850 151.7070 203° Southwest 213 245 5,600 -1,500 Descending FlightAware
02:11AM -32.5980 151.7000 204° Southwest 207 238 5,200 -1,500 Descending FlightAware
02:11AM -32.6200 151.6900 201° Southwest 196 226 4,600 -1,440 Descending FlightAware
02:12AM -32.6430 151.6790 202° Southwest 174 200 3,900 -900 Descending FlightAware
02:12AM -32.6630 151.6700 201° Southwest 158 182 3,800 -600 Descending FlightAware
02:12AM -32.6730 151.6650 203° Southwest 162 186 3,500 -1,440 Descending FlightAware
02:13AM -32.6810 151.6620 198° South 163 188 3,200 -1,440 Descending FlightAware
02:13AM -32.6940 151.6720 147° Southeast 160 184 2,800 -900 Descending FlightAware
02:13AM -32.6990 151.6820 121° Southeast 155 178 2,700 -300 Descending FlightAware
02:14AM -32.7070 151.7010 117° Southeast 137 158 2,600 120 Descending FlightAware
02:14AM -32.7123 151.7162 117° Southeast 139 160 2,800 -600 Climbing Aus ATC (RADAR)
02:14AM -32.7160 151.7230 117° Southeast 145 167 2,300 -1,380 Descending FlightAware
02:14AM -32.7220 151.7320 128° Southeast 132 152 2,200 -600 Descending FlightAware
02:15AM -32.7320 151.7460 130° Southeast 131 151 1,900 -900 Descending FlightAware
02:15AM -32.7440 151.7620 132° Southeast 129 148 1,400 -900 Descending FlightAware
02:16AM -32.7540 151.7760 130° Southeast 126 145 1,100 -780 Descending FlightAware
02:16AM -32.7650 151.7910 131° Southeast 130 150 700 -900 Descending FlightAware
02:17AM -32.7740 151.8040 129° Southeast 124 143 300 -480 Descending FlightAware
02:17AM -32.7881 151.8245 129° Southeast 107 123 200 -300 Descending Aus ATC (RADAR)
02:17AM -32.7880 151.8230 129° Southeast 122 140 100 -3,000 Descending FlightAware
02:18AM -32.7970 151.8360 129° Southeast 49 56 -180 Descending FlightAware
02:19AM -32.8000 151.8410 126° Southeast 37 43  Level FlightAware
02:19AM -32.8030 151.8400 196° South 19 22  Level FlightAware
02:20AM -32.8050 151.8430 128° Southeast 9 10  Level FlightAware
02:20AM -32.8050 151.8420 270° West  Level FlightAware